createdAt,value
2018-12-29T00:00:27.118Z,0
2018-12-29T00:01:37.184Z,0
2018-12-29T00:02:47.021Z,0
2018-12-29T00:03:57.097Z,0
2018-12-29T00:05:07.397Z,0
2018-12-29T00:06:17.495Z,0
2018-12-29T00:07:27.581Z,0
2018-12-29T00:08:37.635Z,0
2018-12-29T00:09:47.749Z,0
2018-12-29T00:10:57.567Z,0
2018-12-29T00:12:07.983Z,0
2018-12-29T00:13:18.050Z,0
2018-12-29T00:14:27.888Z,0
2018-12-29T00:15:37.700Z,0
2018-12-29T00:16:47.778Z,0
2018-12-29T00:17:57.596Z,0
2018-12-29T00:19:07.687Z,0
2018-12-29T00:20:17.786Z,0
2018-12-29T00:21:27.643Z,0
2018-12-29T00:22:37.723Z,0
2018-12-29T00:23:47.804Z,0
2018-12-29T00:24:57.906Z,0
2018-12-29T00:26:08.018Z,0
2018-12-29T00:27:18.088Z,0
2018-12-29T00:28:27.908Z,0
2018-12-29T00:29:37.976Z,0
2018-12-29T00:30:47.868Z,0
2018-12-29T00:31:57.973Z,0
2018-12-29T00:33:09.787Z,0
2018-12-29T00:34:19.895Z,0
2018-12-29T00:35:29.971Z,0
2018-12-29T00:36:40.056Z,0
2018-12-29T00:37:49.884Z,0
2018-12-29T00:38:59.969Z,0
2018-12-29T00:40:10.039Z,0
2018-12-29T00:41:19.865Z,0
2018-12-29T00:42:29.924Z,0
2018-12-29T00:43:40.001Z,0
2018-12-29T00:44:50.082Z,0
2018-12-29T00:46:00.248Z,0
2018-12-29T00:47:10.326Z,0
2018-12-29T00:48:20.420Z,0
2018-12-29T00:49:30.230Z,0
2018-12-29T00:50:40.312Z,0
2018-12-29T00:51:50.391Z,0
2018-12-29T00:53:00.304Z,0
2018-12-29T00:54:10.364Z,0
2018-12-29T00:55:20.447Z,0
2018-12-29T00:56:30.292Z,0
2018-12-29T00:57:40.351Z,0
2018-12-29T00:58:50.433Z,0
2018-12-29T01:00:01.318Z,0
2018-12-29T01:01:11.592Z,0
2018-12-29T01:02:22.734Z,0
2018-12-29T01:03:32.815Z,0
2018-12-29T01:04:42.887Z,0
2018-12-29T01:05:52.977Z,0
2018-12-29T01:07:03.080Z,0
2018-12-29T01:08:13.151Z,0
2018-12-29T01:09:23.234Z,0
2018-12-29T01:10:33.277Z,0
2018-12-29T01:11:43.076Z,0
2018-12-29T01:12:53.182Z,0
2018-12-29T01:14:04.456Z,0
2018-12-29T01:15:17.275Z,0
2018-12-29T01:16:27.345Z,0
2018-12-29T01:17:37.413Z,0
2018-12-29T01:18:47.496Z,0
2018-12-29T01:19:57.564Z,0
2018-12-29T01:21:07.361Z,0
2018-12-29T01:22:17.415Z,0
2018-12-29T01:23:27.460Z,0
2018-12-29T01:24:37.516Z,0
2018-12-29T01:25:47.657Z,0
2018-12-29T01:26:57.726Z,0
2018-12-29T01:28:07.963Z,0
2018-12-29T01:29:18.064Z,0
2018-12-29T01:30:28.138Z,0
2018-12-29T01:31:38.224Z,0
2018-12-29T01:32:47.834Z,0
2018-12-29T01:33:57.916Z,0
2018-12-29T01:35:07.726Z,0
2018-12-29T01:36:17.876Z,0
2018-12-29T01:37:27.974Z,0
2018-12-29T01:38:37.800Z,0
2018-12-29T01:39:47.874Z,0
2018-12-29T01:40:57.982Z,0
2018-12-29T01:42:08.057Z,0
2018-12-29T01:43:17.860Z,0
2018-12-29T01:44:27.936Z,0
2018-12-29T01:45:37.739Z,0
2018-12-29T01:46:47.803Z,0
2018-12-29T01:47:57.861Z,0
2018-12-29T01:49:08.703Z,0
2018-12-29T01:50:18.792Z,0
2018-12-29T01:51:28.859Z,0
2018-12-29T01:52:38.925Z,0
2018-12-29T01:53:48.993Z,0
2018-12-29T01:54:59.111Z,0
2018-12-29T01:56:09.187Z,0
2018-12-29T01:57:19.007Z,0
2018-12-29T01:58:29.073Z,0
2018-12-29T01:59:39.145Z,0
2018-12-29T02:00:49.221Z,0
2018-12-29T02:01:59.308Z,0
2018-12-29T02:03:09.489Z,0
2018-12-29T02:04:19.573Z,0
2018-12-29T02:05:29.717Z,0
2018-12-29T02:06:39.621Z,0
2018-12-29T02:07:49.684Z,0
2018-12-29T02:08:59.763Z,0
2018-12-29T02:10:09.823Z,0
2018-12-29T02:11:19.918Z,0
2018-12-29T02:12:30.036Z,0
2018-12-29T02:13:40.148Z,0
2018-12-29T02:14:50.231Z,0
2018-12-29T02:16:00.063Z,0
2018-12-29T02:17:10.127Z,0
2018-12-29T02:18:20.206Z,0
2018-12-29T02:19:30.303Z,0
2018-12-29T02:20:40.373Z,0
2018-12-29T02:21:50.427Z,0
2018-12-29T02:23:00.498Z,0
2018-12-29T02:24:10.614Z,0
2018-12-29T02:25:20.668Z,0
2018-12-29T02:26:30.734Z,0
2018-12-29T02:27:40.539Z,0
2018-12-29T02:28:50.590Z,0
2018-12-29T02:30:00.334Z,0
2018-12-29T02:31:10.488Z,0
2018-12-29T02:32:20.319Z,0
2018-12-29T02:33:30.410Z,0
2018-12-29T02:34:40.483Z,0
2018-12-29T02:35:50.295Z,0
2018-12-29T02:37:00.379Z,0
2018-12-29T02:38:10.511Z,0
2018-12-29T02:39:20.630Z,0
2018-12-29T02:40:30.720Z,0
2018-12-29T02:41:40.779Z,0
2018-12-29T02:42:50.855Z,0
2018-12-29T02:44:00.918Z,0
2018-12-29T02:45:10.992Z,0
2018-12-29T02:46:20.814Z,0
2018-12-29T02:47:30.906Z,0
2018-12-29T02:48:40.979Z,0
2018-12-29T02:49:51.054Z,0
2018-12-29T02:51:01.138Z,0
2018-12-29T02:52:11.207Z,0
2018-12-29T02:53:21.005Z,0
2018-12-29T02:54:31.093Z,0
2018-12-29T02:55:41.196Z,0
2018-12-29T02:56:51.002Z,0
2018-12-29T02:58:01.089Z,0
2018-12-29T02:59:10.923Z,0
2018-12-29T03:00:21.490Z,0
2018-12-29T03:01:31.615Z,0
2018-12-29T03:02:41.677Z,0
2018-12-29T03:35:06.530Z,0
2018-12-29T03:36:16.331Z,0
2018-12-29T03:37:25.954Z,0
2018-12-29T03:38:35.753Z,0
2018-12-29T03:39:45.831Z,0
2018-12-29T03:40:55.894Z,0
2018-12-29T03:42:06.092Z,0
2018-12-29T03:43:16.172Z,0
2018-12-29T03:44:26.252Z,0
2018-12-29T03:45:36.333Z,0
2018-12-29T03:46:46.427Z,0
2018-12-29T03:47:56.504Z,0
2018-12-29T03:49:06.311Z,0
2018-12-29T03:50:16.384Z,0
2018-12-29T03:51:26.452Z,0
2018-12-29T03:52:36.521Z,0
2018-12-29T03:53:46.571Z,0
2018-12-29T03:54:56.647Z,0
2018-12-29T03:56:06.485Z,0
2018-12-29T03:57:16.052Z,0
2018-12-29T03:58:26.134Z,0
2018-12-29T03:59:36.281Z,0
2018-12-29T04:00:46.348Z,0
2018-12-29T04:01:56.423Z,0
2018-12-29T04:03:06.495Z,0
2018-12-29T04:04:16.568Z,0
2018-12-29T04:05:26.498Z,0
2018-12-29T04:06:36.066Z,0
2018-12-29T04:07:46.140Z,0
2018-12-29T04:08:56.206Z,0
2018-12-29T04:10:06.526Z,0
2018-12-29T04:11:16.584Z,0
2018-12-29T04:12:26.661Z,0
2018-12-29T04:13:36.788Z,0
2018-12-29T04:14:46.855Z,0
2018-12-29T04:16:05.215Z,0
2018-12-29T04:17:15.291Z,0
2018-12-29T04:18:25.349Z,0
2018-12-29T04:19:35.154Z,0
2018-12-29T04:20:45.271Z,0
2018-12-29T04:21:55.075Z,0
2018-12-29T04:23:07.137Z,0
2018-12-29T04:24:16.696Z,0
2018-12-29T04:25:26.778Z,0
2018-12-29T04:26:36.833Z,0
2018-12-29T04:27:46.634Z,0
2018-12-29T04:28:56.451Z,0
2018-12-29T04:30:06.516Z,0
2018-12-29T04:31:16.624Z,0
2018-12-29T04:32:26.687Z,0
2018-12-29T04:33:36.826Z,0
2018-12-29T04:34:46.896Z,0
2018-12-29T04:35:56.944Z,0
2018-12-29T04:37:07.010Z,0
2018-12-29T04:38:17.062Z,0
2018-12-29T04:39:27.125Z,0
2018-12-29T04:40:37.187Z,0
2018-12-29T04:41:46.995Z,0
2018-12-29T04:42:57.039Z,0
2018-12-29T04:44:07.102Z,0
2018-12-29T04:45:17.160Z,0
2018-12-29T04:46:27.228Z,0
2018-12-29T04:47:36.768Z,0
2018-12-29T04:48:46.827Z,0
2018-12-29T04:49:56.899Z,0
2018-12-29T04:51:06.931Z,0
2018-12-29T04:52:17.013Z,0
2018-12-29T04:53:26.553Z,0
2018-12-29T04:54:36.632Z,0
2018-12-29T04:55:46.442Z,0
2018-12-29T04:56:56.502Z,0
2018-12-29T04:58:06.555Z,0
2018-12-29T04:59:16.356Z,0
2018-12-29T05:00:26.176Z,0
2018-12-29T05:01:35.972Z,0
2018-12-29T05:02:45.763Z,0
2018-12-29T05:03:55.825Z,0
2018-12-29T05:05:05.895Z,0
2018-12-29T05:06:15.712Z,0
2018-12-29T05:07:25.538Z,0
2018-12-29T05:08:35.634Z,0
2018-12-29T05:09:45.708Z,0
2018-12-29T05:10:55.773Z,0
2018-12-29T05:12:05.612Z,0
2018-12-29T05:13:15.158Z,0
2018-12-29T05:14:25.210Z,0
2018-12-29T05:15:35.017Z,0
2018-12-29T05:16:45.100Z,0
2018-12-29T05:17:55.164Z,0
2018-12-29T05:19:05.233Z,0
2018-12-29T05:20:15.055Z,0
2018-12-29T05:21:25.116Z,0
2018-12-29T05:22:35.178Z,0
2018-12-29T05:23:45.243Z,0
2018-12-29T05:24:55.299Z,0
2018-12-29T05:26:04.900Z,0
2018-12-29T05:27:14.955Z,0
2018-12-29T05:28:25.015Z,0
2018-12-29T05:29:34.812Z,0
2018-12-29T05:30:44.856Z,0
2018-12-29T05:31:54.916Z,0
2018-12-29T05:33:04.703Z,0
2018-12-29T05:34:14.507Z,0
2018-12-29T05:35:24.574Z,0
2018-12-29T05:36:34.642Z,0
2018-12-29T05:37:44.446Z,0
2018-12-29T05:38:54.511Z,0
2018-12-29T05:40:04.578Z,0
2018-12-29T05:41:14.130Z,0
2018-12-29T05:42:24.191Z,0
2018-12-29T05:43:34.096Z,0
2018-12-29T05:44:44.157Z,0
2018-12-29T05:45:54.214Z,0
2018-12-29T05:47:04.021Z,0
2018-12-29T05:48:14.076Z,0
2018-12-29T05:49:24.139Z,0
2018-12-29T05:50:34.209Z,0
2018-12-29T05:51:44.014Z,0
2018-12-29T05:52:54.064Z,0
2018-12-29T05:54:04.124Z,0
2018-12-29T05:55:13.923Z,0
2018-12-29T05:56:24.919Z,0
2018-12-29T05:57:34.716Z,0
2018-12-29T05:58:44.799Z,0
2018-12-29T05:59:54.886Z,0
2018-12-29T06:01:04.697Z,0
2018-12-29T06:02:14.742Z,0
2018-12-29T06:03:24.536Z,0
2018-12-29T06:04:34.601Z,0
2018-12-29T06:05:44.667Z,0
2018-12-29T06:06:54.744Z,0
2018-12-29T06:08:04.787Z,0
2018-12-29T06:09:14.863Z,0
2018-12-29T06:10:24.937Z,0
2018-12-29T06:11:35.009Z,0
2018-12-29T06:12:45.381Z,0
2018-12-29T06:13:55.494Z,0
2018-12-29T06:15:05.296Z,0
2018-12-29T06:16:15.363Z,4
2018-12-29T06:17:25.421Z,4
2018-12-29T06:18:35.533Z,0
2018-12-29T06:19:45.608Z,0
2018-12-29T06:20:55.394Z,4
2018-12-29T06:22:05.446Z,0
2018-12-29T06:23:15.503Z,4
2018-12-29T06:24:25.565Z,4
2018-12-29T06:25:35.677Z,8
2018-12-29T06:26:45.509Z,8
2018-12-29T06:27:55.585Z,8
2018-12-29T06:29:05.692Z,8
2018-12-29T06:30:15.793Z,12
2018-12-29T06:31:25.847Z,16
2018-12-29T06:32:35.657Z,16
2018-12-29T06:33:45.708Z,20
2018-12-29T06:34:55.514Z,20
2018-12-29T06:36:05.327Z,24
2018-12-29T06:37:15.124Z,28
2018-12-29T06:38:25.191Z,32
2018-12-29T06:39:35.012Z,32
2018-12-29T06:40:45.064Z,36
2018-12-29T06:41:55.158Z,36
2018-12-29T06:43:05.498Z,40
2018-12-29T06:44:15.576Z,40
2018-12-29T06:45:25.651Z,48
2018-12-29T06:46:42.153Z,52
2018-12-29T06:47:52.232Z,56
2018-12-29T06:49:02.291Z,56
2018-12-29T06:50:12.117Z,60
2018-12-29T06:51:22.177Z,68
2018-12-29T06:52:31.991Z,68
2018-12-29T06:53:41.851Z,72
2018-12-29T06:54:51.927Z,76
2018-12-29T06:56:01.977Z,80
2018-12-29T06:57:12.045Z,84
2018-12-29T06:58:22.110Z,84
2018-12-29T06:59:32.205Z,92
2018-12-29T07:00:42.262Z,96
2018-12-29T07:01:52.325Z,108
2018-12-29T07:03:02.427Z,108
2018-12-29T07:04:12.249Z,120
2018-12-29T07:05:22.316Z,124
2018-12-29T07:06:32.367Z,140
2018-12-29T07:07:42.701Z,160
2018-12-29T07:08:52.495Z,176
2018-12-29T07:10:02.383Z,188
2018-12-29T07:11:12.330Z,192
2018-12-29T07:12:22.136Z,192
2018-12-29T07:13:32.272Z,192
2018-12-29T07:14:42.330Z,192
2018-12-29T07:15:52.137Z,196
2018-12-29T07:17:03.275Z,204
2018-12-29T07:18:13.090Z,212
2018-12-29T07:19:23.151Z,212
2018-12-29T07:20:32.973Z,212
2018-12-29T07:21:43.019Z,216
2018-12-29T07:22:53.101Z,212
2018-12-29T07:24:03.199Z,216
2018-12-29T07:25:13.304Z,216
2018-12-29T07:26:23.365Z,212
2018-12-29T07:27:33.412Z,208
2018-12-29T07:28:43.231Z,212
2018-12-29T07:29:53.039Z,224
2018-12-29T07:31:02.821Z,236
2018-12-29T07:32:12.880Z,244
2018-12-29T07:33:22.681Z,248
2018-12-29T07:34:32.755Z,252
2018-12-29T07:35:42.837Z,264
2018-12-29T07:36:52.656Z,276
2018-12-29T07:38:02.198Z,280
2018-12-29T07:39:12.273Z,284
2018-12-29T07:40:22.347Z,288
2018-12-29T07:41:32.417Z,292
2018-12-29T07:42:42.508Z,308
2018-12-29T07:43:52.580Z,324
2018-12-29T07:45:02.822Z,340
2018-12-29T07:46:12.689Z,360
2018-12-29T07:47:22.747Z,368
2018-12-29T07:48:32.540Z,376
2018-12-29T07:49:42.627Z,388
2018-12-29T07:50:52.694Z,396
2018-12-29T07:52:02.678Z,396
2018-12-29T07:53:12.504Z,404
2018-12-29T07:54:22.573Z,400
2018-12-29T07:55:32.696Z,404
2018-12-29T07:56:42.527Z,416
2018-12-29T07:57:52.578Z,428
2018-12-29T07:59:02.748Z,456
2018-12-29T08:00:13.286Z,488
2018-12-29T08:01:23.519Z,512
2018-12-29T08:02:33.596Z,540
2018-12-29T08:03:43.640Z,564
2018-12-29T08:04:53.786Z,572
2018-12-29T08:06:05.097Z,564
2018-12-29T08:07:15.145Z,552
2018-12-29T08:08:25.208Z,544
2018-12-29T08:09:35.285Z,548
2018-12-29T08:10:46.187Z,560
2018-12-29T08:11:55.996Z,572
2018-12-29T08:13:05.794Z,576
2018-12-29T08:14:15.861Z,580
2018-12-29T08:15:25.934Z,580
2018-12-29T08:16:35.726Z,572
2018-12-29T08:17:45.555Z,584
2018-12-29T08:18:55.626Z,596
2018-12-29T08:20:05.689Z,632
2018-12-29T08:21:15.745Z,684
2018-12-29T08:22:26.640Z,740
2018-12-29T08:23:36.715Z,788
2018-12-29T08:24:46.543Z,820
2018-12-29T08:25:56.354Z,840
2018-12-29T08:27:06.170Z,828
2018-12-29T08:28:16.227Z,808
2018-12-29T08:29:26.289Z,788
2018-12-29T08:30:36.372Z,772
2018-12-29T08:31:46.453Z,768
2018-12-29T08:32:56.260Z,784
2018-12-29T08:34:07.010Z,820
2018-12-29T08:35:17.196Z,864
2018-12-29T08:36:26.764Z,896
2018-12-29T08:37:36.837Z,936
2018-12-29T08:38:46.918Z,980
2018-12-29T08:39:56.973Z,1040
2018-12-29T08:41:06.797Z,1084
2018-12-29T08:42:16.865Z,1100
2018-12-29T08:43:26.686Z,1104
2018-12-29T08:44:36.780Z,1096
2018-12-29T08:45:46.871Z,1100
2018-12-29T08:46:56.677Z,1096
2018-12-29T08:48:12.317Z,1104
2018-12-29T08:49:22.373Z,1108
2018-12-29T08:50:32.459Z,1128
2018-12-29T08:51:42.528Z,1136
2018-12-29T08:52:52.599Z,1136
2018-12-29T08:54:03.711Z,1116
2018-12-29T08:55:13.794Z,1104
2018-12-29T08:56:23.858Z,1092
2018-12-29T08:57:33.919Z,1088
2018-12-29T08:58:44.014Z,1104
2018-12-29T08:59:54.125Z,1124
2018-12-29T09:01:04.197Z,1128
2018-12-29T09:02:14.278Z,1116
2018-12-29T09:03:25.009Z,1132
2018-12-29T09:04:34.556Z,1192
2018-12-29T09:05:44.362Z,1280
2018-12-29T09:06:54.177Z,1352
2018-12-29T09:08:04.354Z,1404
2018-12-29T09:09:14.426Z,1424
2018-12-29T09:10:24.280Z,1416
2018-12-29T09:11:34.350Z,1392
2018-12-29T09:12:44.169Z,1396
2018-12-29T09:13:54.134Z,1428
2018-12-29T09:15:04.216Z,1496
2018-12-29T09:16:14.286Z,1572
2018-12-29T09:17:24.358Z,1656
2018-12-29T09:18:34.409Z,1744
2018-12-29T09:19:44.469Z,1820
2018-12-29T09:20:54.536Z,1896
2018-12-29T09:22:04.340Z,1948
2018-12-29T09:23:14.153Z,2008
2018-12-29T09:24:24.227Z,2060
2018-12-29T09:25:34.317Z,2096
2018-12-29T09:26:44.147Z,2160
2018-12-29T09:27:54.220Z,2200
2018-12-29T09:29:04.903Z,2200
2018-12-29T09:30:14.995Z,2204
2018-12-29T09:31:25.545Z,2204
2018-12-29T09:32:35.639Z,2192
2018-12-29T09:33:45.478Z,2212
2018-12-29T09:34:55.566Z,2212
2018-12-29T09:36:05.714Z,2200
2018-12-29T09:37:15.793Z,2160
2018-12-29T09:38:25.860Z,2148
2018-12-29T09:39:35.986Z,2168
2018-12-29T09:40:46.057Z,2136
2018-12-29T09:41:56.056Z,2092
2018-12-29T09:43:06.194Z,2108
2018-12-29T09:44:16.526Z,2148
2018-12-29T09:45:26.609Z,2160
2018-12-29T09:46:36.393Z,2188
2018-12-29T09:47:46.201Z,2240
2018-12-29T09:48:56.277Z,2272
2018-12-29T09:50:06.094Z,2244
2018-12-29T09:51:16.170Z,2252
2018-12-29T09:52:26.251Z,2256
2018-12-29T09:53:36.318Z,2164
2018-12-29T09:54:46.142Z,2124
2018-12-29T09:55:56.200Z,2116
2018-12-29T09:57:06.279Z,1916
2018-12-29T09:58:16.104Z,1760
2018-12-29T09:59:25.943Z,1640
2018-12-29T10:00:36.027Z,1612
2018-12-29T10:01:46.086Z,1620
2018-12-29T10:02:56.183Z,1600
2018-12-29T10:04:06.249Z,1580
2018-12-29T10:05:16.480Z,1652
2018-12-29T10:06:26.563Z,1816
2018-12-29T10:07:36.358Z,1960
2018-12-29T10:08:46.435Z,2056
2018-12-29T10:09:56.505Z,2132
2018-12-29T10:11:07.229Z,2152
2018-12-29T10:12:17.283Z,2156
2018-12-29T10:13:27.327Z,2180
2018-12-29T10:14:37.404Z,2272
2018-12-29T10:15:47.487Z,2352
2018-12-29T10:16:57.547Z,2396
2018-12-29T10:18:07.172Z,2408
2018-12-29T10:19:17.250Z,2396
2018-12-29T10:20:27.375Z,2380
2018-12-29T10:21:37.197Z,2308
2018-12-29T10:22:47.288Z,2256
2018-12-29T10:23:57.369Z,2248
2018-12-29T10:25:07.834Z,2272
2018-12-29T10:26:17.902Z,2328
2018-12-29T10:27:27.974Z,2384
2018-12-29T10:28:37.796Z,2440
2018-12-29T10:29:47.954Z,2544
2018-12-29T10:30:58.043Z,2660
2018-12-29T10:32:08.117Z,2688
2018-12-29T10:33:18.186Z,2680
2018-12-29T10:34:28.298Z,2676
2018-12-29T10:35:38.197Z,2676
2018-12-29T10:36:48.285Z,2628
2018-12-29T10:37:58.358Z,2572
2018-12-29T10:39:08.216Z,2540
2018-12-29T10:40:18.307Z,2560
2018-12-29T10:41:28.438Z,2568
2018-12-29T10:42:38.498Z,2556
2018-12-29T10:43:48.304Z,2548
2018-12-29T10:44:58.130Z,2544
2018-12-29T10:46:08.180Z,2548
2018-12-29T10:47:18.013Z,2536
2018-12-29T10:48:28.096Z,2528
2018-12-29T10:49:38.197Z,2524
2018-12-29T10:50:48.295Z,2544
2018-12-29T10:51:58.374Z,2548
2018-12-29T10:53:08.710Z,2504
2018-12-29T10:54:18.791Z,2452
2018-12-29T10:55:28.608Z,2372
2018-12-29T10:56:38.705Z,2264
2018-12-29T10:57:48.537Z,2144
2018-12-29T10:58:58.615Z,2028
2018-12-29T11:00:09.235Z,1896
2018-12-29T11:01:20.280Z,1772
2018-12-29T11:02:30.094Z,1664
2018-12-29T11:03:40.167Z,1584
2018-12-29T11:04:50.229Z,1548
2018-12-29T11:06:00.302Z,1520
2018-12-29T11:07:10.389Z,1504
2018-12-29T11:08:20.553Z,1448
2018-12-29T11:09:30.635Z,1364
2018-12-29T11:10:40.697Z,1276
2018-12-29T11:11:50.797Z,1212
2018-12-29T11:13:00.947Z,1172
2018-12-29T11:14:11.025Z,1152
2018-12-29T11:15:21.513Z,1124
2018-12-29T11:16:31.631Z,1120
2018-12-29T11:17:49.551Z,1136
2018-12-29T11:18:59.382Z,1176
2018-12-29T11:20:09.467Z,1248
2018-12-29T11:21:19.545Z,1340
2018-12-29T11:22:29.405Z,1448
2018-12-29T11:23:39.223Z,1548
2018-12-29T11:24:49.313Z,1648
2018-12-29T11:25:59.154Z,1728
2018-12-29T11:27:09.226Z,1744
2018-12-29T11:28:19.312Z,1708
2018-12-29T11:29:29.433Z,1648
2018-12-29T11:30:39.533Z,1584
2018-12-29T11:31:49.673Z,1524
2018-12-29T11:32:59.789Z,1472
2018-12-29T11:34:09.952Z,1436
2018-12-29T11:35:19.799Z,1404
2018-12-29T11:36:36.674Z,1372
2018-12-29T11:37:46.746Z,1344
2018-12-29T11:38:56.823Z,1316
2018-12-29T11:40:06.657Z,1292
2018-12-29T11:41:16.730Z,1272
2018-12-29T11:42:26.822Z,1256
2018-12-29T11:43:36.907Z,1244
2018-12-29T11:44:47.019Z,1232
2018-12-29T11:45:56.846Z,1216
2018-12-29T11:47:06.946Z,1192
2018-12-29T11:48:16.777Z,1168
2018-12-29T11:49:26.909Z,1132
2018-12-29T11:50:37.053Z,1108
2018-12-29T11:51:47.190Z,1084
2018-12-29T11:52:57.074Z,1060
2018-12-29T11:54:07.199Z,1036
2018-12-29T11:55:17.299Z,1008
2018-12-29T11:56:27.428Z,980
2018-12-29T11:57:37.620Z,956
2018-12-29T11:58:47.463Z,928
2018-12-29T11:59:57.644Z,904
2018-12-29T12:01:08.477Z,888
2018-12-29T12:02:26.917Z,876
2018-12-29T12:03:36.841Z,868
2018-12-29T12:04:46.990Z,860
2018-12-29T12:05:56.873Z,848
2018-12-29T12:07:07.101Z,840
2018-12-29T12:08:17.243Z,840
2018-12-29T12:09:27.366Z,840
2018-12-29T12:10:38.209Z,848
2018-12-29T12:11:48.332Z,856
2018-12-29T12:12:58.044Z,860
2018-12-29T12:14:08.169Z,864
2018-12-29T12:15:18.343Z,864
2018-12-29T12:16:28.469Z,864
2018-12-29T12:17:38.626Z,868
2018-12-29T12:18:48.754Z,868
2018-12-29T12:19:58.907Z,872
2018-12-29T12:21:09.103Z,872
2018-12-29T12:22:19.237Z,872
2018-12-29T12:23:29.363Z,872
2018-12-29T12:24:39.540Z,872
2018-12-29T12:25:49.694Z,864
2018-12-29T12:27:01.078Z,860
2018-12-29T12:28:11.210Z,852
2018-12-29T12:29:22.059Z,840
2018-12-29T12:30:32.225Z,832
2018-12-29T12:31:43.813Z,824
2018-12-29T12:32:53.725Z,812
2018-12-29T12:34:04.568Z,808
2018-12-29T12:35:15.283Z,808
2018-12-29T12:36:25.406Z,804
2018-12-29T12:37:35.932Z,800
2018-12-29T12:38:46.184Z,792
2018-12-29T12:39:56.092Z,784
2018-12-29T12:41:06.246Z,772
2018-12-29T12:42:16.137Z,760
2018-12-29T12:43:27.201Z,748
2018-12-29T12:44:37.462Z,740
2018-12-29T12:45:48.210Z,732
2018-12-29T12:46:58.084Z,728
2018-12-29T12:48:12.599Z,724
2018-12-29T12:49:22.744Z,724
2018-12-29T12:50:32.946Z,728
2018-12-29T12:51:43.534Z,732
2018-12-29T12:52:53.620Z,736
2018-12-29T12:54:03.575Z,736
2018-12-29T12:55:13.723Z,732
2018-12-29T12:56:24.152Z,732
2018-12-29T12:57:35.148Z,728
2018-12-29T12:58:46.614Z,724
2018-12-29T12:59:57.433Z,720
2018-12-29T13:01:08.614Z,712
2018-12-29T13:02:19.151Z,704
2018-12-29T13:03:29.649Z,692
2018-12-29T13:04:39.801Z,688
2018-12-29T13:05:49.916Z,680
2018-12-29T13:07:00.034Z,676
2018-12-29T13:08:10.191Z,680
2018-12-29T13:09:20.323Z,680
2018-12-29T13:10:30.243Z,680
2018-12-29T13:11:40.412Z,676
2018-12-29T13:12:50.518Z,668
2018-12-29T13:14:00.128Z,660
2018-12-29T13:15:09.755Z,648
2018-12-29T13:16:19.907Z,644
2018-12-29T13:17:30.059Z,648
2018-12-29T13:18:39.662Z,652
2018-12-29T13:19:49.812Z,668
2018-12-29T13:20:59.949Z,676
2018-12-29T13:22:10.822Z,696
2018-12-29T13:23:20.718Z,716
2018-12-29T13:24:30.855Z,732
2018-12-29T13:25:40.723Z,752
2018-12-29T13:26:50.879Z,772
2018-12-29T13:28:01.010Z,784
2018-12-29T13:29:10.897Z,796
2018-12-29T13:30:21.640Z,804
2018-12-29T13:31:32.901Z,808
2018-12-29T13:32:43.665Z,820
2018-12-29T13:33:53.807Z,848
2018-12-29T13:35:03.945Z,864
2018-12-29T13:36:14.158Z,876
2018-12-29T13:37:24.148Z,884
2018-12-29T13:38:34.270Z,884
2018-12-29T13:39:44.403Z,876
2018-12-29T13:40:54.261Z,864
2018-12-29T13:42:04.376Z,856
2018-12-29T13:43:14.611Z,860
2018-12-29T13:44:24.723Z,864
2018-12-29T13:45:34.836Z,872
2018-12-29T13:46:44.970Z,880
2018-12-29T13:47:55.080Z,884
2018-12-29T13:49:07.205Z,880
2018-12-29T13:50:17.319Z,876
2018-12-29T13:51:27.420Z,872
2018-12-29T13:52:37.541Z,864
2018-12-29T13:53:47.434Z,860
2018-12-29T13:54:57.567Z,868
2018-12-29T13:56:07.405Z,868
2018-12-29T13:57:17.270Z,872
2018-12-29T13:58:27.690Z,868
2018-12-29T13:59:38.604Z,876
2018-12-29T14:00:50.281Z,892
2018-12-29T14:02:00.270Z,900
2018-12-29T14:03:10.411Z,904
2018-12-29T14:04:20.548Z,888
2018-12-29T14:05:30.677Z,848
2018-12-29T14:06:40.878Z,808
2018-12-29T14:07:51.012Z,784
2018-12-29T14:09:01.150Z,792
2018-12-29T14:10:11.269Z,784
2018-12-29T14:11:21.418Z,776
2018-12-29T14:12:31.541Z,748
2018-12-29T14:13:41.403Z,712
2018-12-29T14:14:51.546Z,684
2018-12-29T14:16:01.676Z,668
2018-12-29T14:17:11.550Z,668
2018-12-29T14:18:27.974Z,656
2018-12-29T14:19:38.327Z,660
2018-12-29T14:20:48.431Z,628
2018-12-29T14:21:57.759Z,596
2018-12-29T14:23:07.924Z,584
2018-12-29T14:24:18.641Z,580
2018-12-29T14:25:29.541Z,588
2018-12-29T14:26:40.293Z,624
2018-12-29T14:27:50.555Z,676
2018-12-29T14:29:00.685Z,692
2018-12-29T14:30:10.540Z,676
2018-12-29T14:31:20.637Z,664
2018-12-29T14:32:30.805Z,644
2018-12-29T14:33:40.924Z,624
2018-12-29T14:34:51.071Z,608
2018-12-29T14:36:00.973Z,592
2018-12-29T14:37:11.075Z,572
2018-12-29T14:38:20.958Z,548
2018-12-29T14:39:31.125Z,524
2018-12-29T14:40:41.250Z,496
2018-12-29T14:41:52.969Z,472
2018-12-29T14:43:03.116Z,452
2018-12-29T14:44:13.271Z,432
2018-12-29T14:45:23.374Z,412
2018-12-29T14:46:33.506Z,388
2018-12-29T14:47:43.608Z,360
2018-12-29T14:48:53.726Z,336
2018-12-29T14:50:03.859Z,312
2018-12-29T14:51:13.715Z,288
2018-12-29T14:52:23.822Z,264
2018-12-29T14:53:35.001Z,244
2018-12-29T14:54:45.742Z,220
2018-12-29T14:55:56.149Z,204
2018-12-29T14:57:06.048Z,184
2018-12-29T14:58:15.652Z,164
2018-12-29T14:59:25.771Z,152
2018-12-29T15:00:35.922Z,136
2018-12-29T15:01:46.033Z,120
2018-12-29T15:02:56.166Z,112
2018-12-29T15:04:06.295Z,96
2018-12-29T15:05:15.916Z,88
2018-12-29T15:06:25.534Z,80
2018-12-29T15:07:35.648Z,68
2018-12-29T15:08:45.808Z,64
2018-12-29T15:09:55.950Z,56
2018-12-29T15:11:07.166Z,52
2018-12-29T15:12:17.300Z,48
2018-12-29T15:13:27.445Z,40
2018-12-29T15:14:37.602Z,36
2018-12-29T15:15:49.242Z,36
2018-12-29T15:17:00.013Z,32
2018-12-29T15:18:10.959Z,24
2018-12-29T15:19:21.534Z,24
2018-12-29T15:20:34.212Z,20
2018-12-29T15:21:44.716Z,16
2018-12-29T15:22:54.854Z,16
2018-12-29T15:24:04.872Z,12
2018-12-29T15:25:17.481Z,8
2018-12-29T15:26:28.224Z,8
2018-12-29T15:27:38.380Z,4
2018-12-29T15:28:48.561Z,4
2018-12-29T15:29:58.728Z,4
2018-12-29T15:31:09.581Z,4
2018-12-29T15:32:20.330Z,4
2018-12-29T15:33:30.475Z,0
2018-12-29T15:34:40.648Z,0
2018-12-29T15:35:50.795Z,4
2018-12-29T15:37:01.653Z,4
2018-12-29T15:38:12.294Z,0
2018-12-29T15:39:22.443Z,0
2018-12-29T15:40:32.657Z,0
2018-12-29T15:41:43.310Z,0
2018-12-29T15:42:53.439Z,0
2018-12-29T15:44:03.964Z,0
2018-12-29T15:45:14.181Z,0
2018-12-29T15:46:24.355Z,0
2018-12-29T15:47:34.936Z,0
2018-12-29T15:48:51.027Z,0
2018-12-29T15:50:02.529Z,0
2018-12-29T15:51:12.703Z,0
2018-12-29T15:52:23.776Z,0
2018-12-29T15:53:34.244Z,0
2018-12-29T15:54:45.227Z,0
2018-12-29T15:55:56.126Z,0
2018-12-29T15:57:06.921Z,0
2018-12-29T15:58:17.068Z,0
2018-12-29T15:59:27.221Z,0
2018-12-29T16:00:37.811Z,0
2018-12-29T16:01:48.190Z,0
2018-12-29T16:02:58.369Z,0
2018-12-29T16:04:10.105Z,0
2018-12-29T16:05:21.248Z,0
2018-12-29T16:06:31.905Z,0
2018-12-29T16:07:42.074Z,0
2018-12-29T16:08:52.851Z,0
2018-12-29T16:10:04.398Z,0
2018-12-29T16:11:15.511Z,0
2018-12-29T16:12:25.813Z,0
2018-12-29T16:13:36.011Z,0
2018-12-29T16:14:46.243Z,0
2018-12-29T16:15:57.434Z,0
2018-12-29T16:17:08.459Z,0
2018-12-29T16:18:18.656Z,0
2018-12-29T16:19:28.816Z,0
2018-12-29T16:20:39.059Z,0
2018-12-29T16:21:50.087Z,0
2018-12-29T16:23:00.971Z,0
2018-12-29T16:24:11.172Z,0
2018-12-29T16:25:21.111Z,0
2018-12-29T16:26:31.088Z,0
2018-12-29T16:27:41.005Z,0
2018-12-29T16:28:51.194Z,0
2018-12-29T16:30:01.101Z,0
2018-12-29T16:31:11.854Z,0
2018-12-29T16:32:22.067Z,0
2018-12-29T16:33:32.934Z,0
2018-12-29T16:34:43.342Z,0
2018-12-29T16:35:53.862Z,0
2018-12-29T16:37:04.547Z,0
2018-12-29T16:38:15.437Z,0
2018-12-29T16:39:25.616Z,0
2018-12-29T16:40:36.218Z,0
2018-12-29T16:41:46.393Z,0
2018-12-29T16:42:57.149Z,0
2018-12-29T16:44:09.069Z,0
2018-12-29T16:45:19.003Z,0
2018-12-29T16:46:29.174Z,0
2018-12-29T16:47:39.329Z,0
2018-12-29T16:48:49.240Z,0
2018-12-29T16:50:00.499Z,0
2018-12-29T16:51:10.656Z,0
2018-12-29T16:52:21.316Z,0
2018-12-29T16:53:36.676Z,0
2018-12-29T16:54:46.862Z,0
2018-12-29T16:55:56.769Z,0
2018-12-29T16:57:07.523Z,0
2018-12-29T16:58:17.693Z,0
2018-12-29T16:59:28.215Z,0
2018-12-29T17:00:38.422Z,0
2018-12-29T17:01:48.371Z,0
2018-12-29T17:02:58.527Z,0
2018-12-29T17:04:09.450Z,0